sensor_id;sensor_type;location;lat;lon;timestamp;temperature;humidity
45066;DHT22;30830;53.704;10.004;2022-12-18T00:00:40;-6.40;99.90
45066;DHT22;30830;53.704;10.004;2022-12-18T00:03:06;-6.50;99.90
45066;DHT22;30830;53.704;10.004;2022-12-18T00:05:32;-6.50;99.90
45066;DHT22;30830;53.704;10.004;2022-12-18T00:07:57;-6.50;99.90
45066;DHT22;30830;53.704;10.004;2022-12-18T00:10:23;-6.40;99.90
45066;DHT22;30830;53.704;10.004;2022-12-18T00:12:48;-6.50;99.90
45066;DHT22;30830;53.704;10.004;2022-12-18T00:15:13;-6.50;99.90
45066;DHT22;30830;53.704;10.004;2022-12-18T00:17:39;-6.40;99.90
45066;DHT22;30830;53.704;10.004;2022-12-18T00:20:04;-6.50;99.90
45066;DHT22;30830;53.704;10.004;2022-12-18T00:22:30;-6.50;99.90
45066;DHT22;30830;53.704;10.004;2022-12-18T00:24:55;-6.50;99.90
45066;DHT22;30830;53.704;10.004;2022-12-18T00:27:21;-6.50;99.90
45066;DHT22;30830;53.704;10.004;2022-12-18T00:29:47;-6.50;99.90
45066;DHT22;30830;53.704;10.004;2022-12-18T00:32:13;-6.50;99.90
45066;DHT22;30830;53.704;10.004;2022-12-18T00:34:38;-6.50;99.90
45066;DHT22;30830;53.704;10.004;2022-12-18T00:37:04;-6.50;99.90
45066;DHT22;30830;53.704;10.004;2022-12-18T00:39:29;-6.50;99.90
45066;DHT22;30830;53.704;10.004;2022-12-18T00:41:55;-6.50;99.90
45066;DHT22;30830;53.704;10.004;2022-12-18T00:44:39;-6.50;99.90
45066;DHT22;30830;53.704;10.004;2022-12-18T00:47:04;-6.50;99.90
45066;DHT22;30830;53.704;10.004;2022-12-18T00:49:30;-6.60;99.90
45066;DHT22;30830;53.704;10.004;2022-12-18T00:51:55;-6.50;99.90
45066;DHT22;30830;53.704;10.004;2022-12-18T00:54:21;-6.60;99.90
45066;DHT22;30830;53.704;10.004;2022-12-18T00:56:46;-6.60;99.90
45066;DHT22;30830;53.704;10.004;2022-12-18T00:59:12;-6.50;99.90
45066;DHT22;30830;53.704;10.004;2022-12-18T01:01:37;-6.60;99.90
45066;DHT22;30830;53.704;10.004;2022-12-18T01:04:03;-6.50;99.90
45066;DHT22;30830;53.704;10.004;2022-12-18T01:06:28;-6.60;99.90
45066;DHT22;30830;53.704;10.004;2022-12-18T01:08:54;-6.60;99.90
45066;DHT22;30830;53.704;10.004;2022-12-18T01:11:21;-6.60;99.90
45066;DHT22;30830;53.704;10.004;2022-12-18T01:13:46;-6.60;99.90
45066;DHT22;30830;53.704;10.004;2022-12-18T01:16:13;-6.60;99.90
45066;DHT22;30830;53.704;10.004;2022-12-18T01:18:39;-6.60;99.90
45066;DHT22;30830;53.704;10.004;2022-12-18T01:21:08;-6.60;99.90
45066;DHT22;30830;53.704;10.004;2022-12-18T01:23:34;-6.60;99.90
45066;DHT22;30830;53.704;10.004;2022-12-18T01:26:04;-6.60;99.90
45066;DHT22;30830;53.704;10.004;2022-12-18T01:28:29;-6.60;99.90
45066;DHT22;30830;53.704;10.004;2022-12-18T01:30:55;-6.60;99.90
45066;DHT22;30830;53.704;10.004;2022-12-18T01:33:20;-6.60;99.90
45066;DHT22;30830;53.704;10.004;2022-12-18T01:35:46;-6.60;99.90
45066;DHT22;30830;53.704;10.004;2022-12-18T01:38:11;-6.50;99.90
45066;DHT22;30830;53.704;10.004;2022-12-18T01:40:37;-6.60;99.90
45066;DHT22;30830;53.704;10.004;2022-12-18T01:43:02;-6.60;99.90
45066;DHT22;30830;53.704;10.004;2022-12-18T01:45:28;-6.60;99.90
45066;DHT22;30830;53.704;10.004;2022-12-18T01:47:58;-6.60;99.90
45066;DHT22;30830;53.704;10.004;2022-12-18T01:52:56;-6.60;99.90
45066;DHT22;30830;53.704;10.004;2022-12-18T01:55:27;-6.60;99.90
45066;DHT22;30830;53.704;10.004;2022-12-18T01:57:54;-6.60;99.90
45066;DHT22;30830;53.704;10.004;2022-12-18T02:00:20;-6.70;99.90
45066;DHT22;30830;53.704;10.004;2022-12-18T02:02:47;-6.70;99.90
45066;DHT22;30830;53.704;10.004;2022-12-18T02:05:13;-6.70;99.90
45066;DHT22;30830;53.704;10.004;2022-12-18T02:12:48;-6.70;99.90
45066;DHT22;30830;53.704;10.004;2022-12-18T02:15:36;-6.70;99.90
45066;DHT22;30830;53.704;10.004;2022-12-18T02:18:06;-6.70;99.90
45066;DHT22;30830;53.704;10.004;2022-12-18T02:20:36;-6.80;99.90
45066;DHT22;30830;53.704;10.004;2022-12-18T02:28:03;-6.90;99.90
45066;DHT22;30830;53.704;10.004;2022-12-18T02:30:31;-6.90;99.90
45066;DHT22;30830;53.704;10.004;2022-12-18T02:32:57;-6.90;99.90
45066;DHT22;30830;53.704;10.004;2022-12-18T02:35:23;-7.00;99.90
45066;DHT22;30830;53.704;10.004;2022-12-18T02:37:49;-7.00;99.90
45066;DHT22;30830;53.704;10.004;2022-12-18T02:40:19;-7.00;99.90
45066;DHT22;30830;53.704;10.004;2022-12-18T02:42:45;-7.00;99.90
45066;DHT22;30830;53.704;10.004;2022-12-18T02:45:11;-7.00;99.90
45066;DHT22;30830;53.704;10.004;2022-12-18T02:47:38;-7.00;99.90
45066;DHT22;30830;53.704;10.004;2022-12-18T02:50:10;-7.00;99.90
45066;DHT22;30830;53.704;10.004;2022-12-18T02:55:31;-7.00;99.90
45066;DHT22;30830;53.704;10.004;2022-12-18T02:58:04;-7.00;99.90
45066;DHT22;30830;53.704;10.004;2022-12-18T03:00:33;-7.10;99.90
45066;DHT22;30830;53.704;10.004;2022-12-18T03:07:59;-7.10;99.90
45066;DHT22;30830;53.704;10.004;2022-12-18T03:10:28;-7.10;99.90
45066;DHT22;30830;53.704;10.004;2022-12-18T03:13:02;-7.10;99.90
45066;DHT22;30830;53.704;10.004;2022-12-18T03:15:43;-7.10;99.90
45066;DHT22;30830;53.704;10.004;2022-12-18T03:18:12;-7.20;99.90
45066;DHT22;30830;53.704;10.004;2022-12-18T03:20:38;-7.20;99.90
45066;DHT22;30830;53.704;10.004;2022-12-18T03:23:09;-7.20;99.90
45066;DHT22;30830;53.704;10.004;2022-12-18T03:25:37;-7.20;99.90
45066;DHT22;30830;53.704;10.004;2022-12-18T03:28:04;-7.20;99.90
45066;DHT22;30830;53.704;10.004;2022-12-18T03:30:31;-7.20;99.90
45066;DHT22;30830;53.704;10.004;2022-12-18T03:33:01;-7.20;99.90
45066;DHT22;30830;53.704;10.004;2022-12-18T03:35:29;-7.30;99.90
45066;DHT22;30830;53.704;10.004;2022-12-18T03:37:55;-7.20;99.90
45066;DHT22;30830;53.704;10.004;2022-12-18T03:40:21;-7.30;99.90
45066;DHT22;30830;53.704;10.004;2022-12-18T03:42:56;-7.30;99.90
45066;DHT22;30830;53.704;10.004;2022-12-18T03:45:27;-7.20;99.90
45066;DHT22;30830;53.704;10.004;2022-12-18T03:48:07;-7.30;99.90
45066;DHT22;30830;53.704;10.004;2022-12-18T03:53:21;-7.30;99.90
45066;DHT22;30830;53.704;10.004;2022-12-18T03:55:49;-7.30;99.90
45066;DHT22;30830;53.704;10.004;2022-12-18T03:58:17;-7.30;99.90
45066;DHT22;30830;53.704;10.004;2022-12-18T04:00:43;-7.40;99.90
45066;DHT22;30830;53.704;10.004;2022-12-18T04:03:09;-7.40;99.90
45066;DHT22;30830;53.704;10.004;2022-12-18T04:05:36;-7.40;99.90
45066;DHT22;30830;53.704;10.004;2022-12-18T04:08:02;-7.40;99.90
45066;DHT22;30830;53.704;10.004;2022-12-18T04:10:28;-7.40;99.90
45066;DHT22;30830;53.704;10.004;2022-12-18T04:12:56;-7.30;99.90
45066;DHT22;30830;53.704;10.004;2022-12-18T04:15:23;-7.40;99.90
45066;DHT22;30830;53.704;10.004;2022-12-18T04:17:48;-7.40;99.90
45066;DHT22;30830;53.704;10.004;2022-12-18T04:20:14;-7.40;99.90
45066;DHT22;30830;53.704;10.004;2022-12-18T04:22:40;-7.40;99.90
45066;DHT22;30830;53.704;10.004;2022-12-18T04:25:05;-7.40;99.90
45066;DHT22;30830;53.704;10.004;2022-12-18T04:27:31;-7.40;99.90
45066;DHT22;30830;53.704;10.004;2022-12-18T04:29:56;-7.40;99.90
45066;DHT22;30830;53.704;10.004;2022-12-18T04:32:22;-7.40;99.90
45066;DHT22;30830;53.704;10.004;2022-12-18T04:34:47;-7.40;99.90
45066;DHT22;30830;53.704;10.004;2022-12-18T04:37:13;-7.40;99.90
45066;DHT22;30830;53.704;10.004;2022-12-18T04:39:38;-7.40;99.90
45066;DHT22;30830;53.704;10.004;2022-12-18T04:42:04;-7.40;99.90
45066;DHT22;30830;53.704;10.004;2022-12-18T04:44:29;-7.40;99.90
45066;DHT22;30830;53.704;10.004;2022-12-18T04:46:55;-7.40;99.90
45066;DHT22;30830;53.704;10.004;2022-12-18T04:49:21;-7.40;99.90
45066;DHT22;30830;53.704;10.004;2022-12-18T04:51:46;-7.40;99.90
45066;DHT22;30830;53.704;10.004;2022-12-18T04:54:12;-7.40;99.90
45066;DHT22;30830;53.704;10.004;2022-12-18T04:56:37;-7.40;99.90
45066;DHT22;30830;53.704;10.004;2022-12-18T04:59:02;-7.40;99.90
45066;DHT22;30830;53.704;10.004;2022-12-18T05:01:28;-7.40;99.90
45066;DHT22;30830;53.704;10.004;2022-12-18T05:03:53;-7.40;99.90
45066;DHT22;30830;53.704;10.004;2022-12-18T05:06:19;-7.40;99.90
45066;DHT22;30830;53.704;10.004;2022-12-18T05:08:44;-7.40;99.90
45066;DHT22;30830;53.704;10.004;2022-12-18T05:11:11;-7.40;99.90
45066;DHT22;30830;53.704;10.004;2022-12-18T05:13:37;-7.40;99.90
45066;DHT22;30830;53.704;10.004;2022-12-18T05:16:03;-7.40;99.90
45066;DHT22;30830;53.704;10.004;2022-12-18T05:18:29;-7.40;99.90
45066;DHT22;30830;53.704;10.004;2022-12-18T05:20:54;-7.40;99.90
45066;DHT22;30830;53.704;10.004;2022-12-18T05:23:20;-7.40;99.90
45066;DHT22;30830;53.704;10.004;2022-12-18T05:25:47;-7.40;99.90
45066;DHT22;30830;53.704;10.004;2022-12-18T05:28:15;-7.40;99.90
45066;DHT22;30830;53.704;10.004;2022-12-18T05:30:42;-7.40;99.90
45066;DHT22;30830;53.704;10.004;2022-12-18T05:33:07;-7.40;99.90
45066;DHT22;30830;53.704;10.004;2022-12-18T05:35:33;-7.30;99.90
45066;DHT22;30830;53.704;10.004;2022-12-18T05:37:58;-7.40;99.90
45066;DHT22;30830;53.704;10.004;2022-12-18T05:40:24;-7.40;99.90
45066;DHT22;30830;53.704;10.004;2022-12-18T05:42:49;-7.40;99.90
45066;DHT22;30830;53.704;10.004;2022-12-18T05:45:15;-7.40;99.90
45066;DHT22;30830;53.704;10.004;2022-12-18T05:47:40;-7.40;99.90
45066;DHT22;30830;53.704;10.004;2022-12-18T05:50:06;-7.40;99.90
45066;DHT22;30830;53.704;10.004;2022-12-18T05:52:32;-7.40;99.90
45066;DHT22;30830;53.704;10.004;2022-12-18T05:54:57;-7.40;99.90
45066;DHT22;30830;53.704;10.004;2022-12-18T05:57:24;-7.30;99.90
45066;DHT22;30830;53.704;10.004;2022-12-18T05:59:49;-7.40;99.90
45066;DHT22;30830;53.704;10.004;2022-12-18T06:02:15;-7.40;99.90
45066;DHT22;30830;53.704;10.004;2022-12-18T06:04:40;-7.40;99.90
45066;DHT22;30830;53.704;10.004;2022-12-18T06:07:06;-7.40;99.90
45066;DHT22;30830;53.704;10.004;2022-12-18T06:09:31;-7.40;99.90
45066;DHT22;30830;53.704;10.004;2022-12-18T06:11:57;-7.40;99.90
45066;DHT22;30830;53.704;10.004;2022-12-18T06:14:22;-7.40;99.90
45066;DHT22;30830;53.704;10.004;2022-12-18T06:16:49;-7.40;99.90
45066;DHT22;30830;53.704;10.004;2022-12-18T06:19:15;-7.50;99.90
45066;DHT22;30830;53.704;10.004;2022-12-18T06:21:41;-7.50;99.90
45066;DHT22;30830;53.704;10.004;2022-12-18T06:24:06;-7.50;99.90
45066;DHT22;30830;53.704;10.004;2022-12-18T06:26:32;-7.50;99.90
45066;DHT22;30830;53.704;10.004;2022-12-18T06:28:57;-7.50;99.90
45066;DHT22;30830;53.704;10.004;2022-12-18T06:31:23;-7.50;99.90
45066;DHT22;30830;53.704;10.004;2022-12-18T06:33:48;-7.50;99.90
45066;DHT22;30830;53.704;10.004;2022-12-18T06:36:14;-7.50;99.90
45066;DHT22;30830;53.704;10.004;2022-12-18T06:38:41;-7.50;99.90
45066;DHT22;30830;53.704;10.004;2022-12-18T06:41:07;-7.50;99.90
45066;DHT22;30830;53.704;10.004;2022-12-18T06:43:33;-7.50;99.90
45066;DHT22;30830;53.704;10.004;2022-12-18T06:45:59;-7.50;99.90
45066;DHT22;30830;53.704;10.004;2022-12-18T06:48:24;-7.50;99.90
45066;DHT22;30830;53.704;10.004;2022-12-18T06:50:50;-7.50;99.90
45066;DHT22;30830;53.704;10.004;2022-12-18T06:53:15;-7.60;99.90
45066;DHT22;30830;53.704;10.004;2022-12-18T06:55:41;-7.50;99.90
45066;DHT22;30830;53.704;10.004;2022-12-18T06:58:06;-7.50;99.90
45066;DHT22;30830;53.704;10.004;2022-12-18T07:00:32;-7.50;99.90
45066;DHT22;30830;53.704;10.004;2022-12-18T07:02:57;-7.60;99.90
45066;DHT22;30830;53.704;10.004;2022-12-18T07:05:22;-7.50;99.90
45066;DHT22;30830;53.704;10.004;2022-12-18T07:07:48;-7.60;99.90
45066;DHT22;30830;53.704;10.004;2022-12-18T07:10:13;-7.50;99.90
45066;DHT22;30830;53.704;10.004;2022-12-18T07:12:39;-7.50;99.90
45066;DHT22;30830;53.704;10.004;2022-12-18T07:15:04;-7.50;99.90
45066;DHT22;30830;53.704;10.004;2022-12-18T07:17:30;-7.50;99.90
45066;DHT22;30830;53.704;10.004;2022-12-18T07:19:55;-7.50;99.90
45066;DHT22;30830;53.704;10.004;2022-12-18T07:22:21;-7.50;99.90
45066;DHT22;30830;53.704;10.004;2022-12-18T07:24:46;-7.50;99.90
45066;DHT22;30830;53.704;10.004;2022-12-18T07:27:15;-7.50;99.90
45066;DHT22;30830;53.704;10.004;2022-12-18T07:29:40;-7.50;99.90
45066;DHT22;30830;53.704;10.004;2022-12-18T07:32:06;-7.50;99.90
45066;DHT22;30830;53.704;10.004;2022-12-18T07:34:32;-7.50;99.90
45066;DHT22;30830;53.704;10.004;2022-12-18T07:36:57;-7.50;99.90
45066;DHT22;30830;53.704;10.004;2022-12-18T07:39:23;-7.40;99.90
45066;DHT22;30830;53.704;10.004;2022-12-18T07:41:48;-7.50;99.90
45066;DHT22;30830;53.704;10.004;2022-12-18T07:44:34;-7.40;99.90
45066;DHT22;30830;53.704;10.004;2022-12-18T07:46:59;-7.40;99.90
45066;DHT22;30830;53.704;10.004;2022-12-18T07:49:25;-7.40;99.90
45066;DHT22;30830;53.704;10.004;2022-12-18T07:51:50;-7.40;99.90
45066;DHT22;30830;53.704;10.004;2022-12-18T07:54:16;-7.40;99.90
45066;DHT22;30830;53.704;10.004;2022-12-18T07:56:41;-7.40;99.90
45066;DHT22;30830;53.704;10.004;2022-12-18T07:59:07;-7.30;99.90
45066;DHT22;30830;53.704;10.004;2022-12-18T08:01:32;-7.30;99.90
45066;DHT22;30830;53.704;10.004;2022-12-18T08:03:58;-7.30;99.90
45066;DHT22;30830;53.704;10.004;2022-12-18T08:06:24;-7.30;99.90
45066;DHT22;30830;53.704;10.004;2022-12-18T08:08:50;-7.30;99.90
45066;DHT22;30830;53.704;10.004;2022-12-18T08:11:16;-7.30;99.90
45066;DHT22;30830;53.704;10.004;2022-12-18T08:13:41;-7.30;99.90
45066;DHT22;30830;53.704;10.004;2022-12-18T08:16:07;-7.20;99.90
45066;DHT22;30830;53.704;10.004;2022-12-18T08:18:33;-7.30;99.90
45066;DHT22;30830;53.704;10.004;2022-12-18T08:21:07;-7.20;99.90
45066;DHT22;30830;53.704;10.004;2022-12-18T08:23:32;-7.10;99.90
45066;DHT22;30830;53.704;10.004;2022-12-18T08:25:58;-7.10;99.90
45066;DHT22;30830;53.704;10.004;2022-12-18T08:28:23;-7.10;99.90
45066;DHT22;30830;53.704;10.004;2022-12-18T08:30:51;-7.10;99.90
45066;DHT22;30830;53.704;10.004;2022-12-18T08:33:17;-7.00;99.90
45066;DHT22;30830;53.704;10.004;2022-12-18T08:35:42;-7.00;99.90
45066;DHT22;30830;53.704;10.004;2022-12-18T08:38:08;-7.00;99.90
45066;DHT22;30830;53.704;10.004;2022-12-18T08:40:33;-7.00;99.90
45066;DHT22;30830;53.704;10.004;2022-12-18T08:42:59;-7.00;99.90
45066;DHT22;30830;53.704;10.004;2022-12-18T08:45:43;-6.90;99.90
45066;DHT22;30830;53.704;10.004;2022-12-18T08:48:08;-6.80;99.90
45066;DHT22;30830;53.704;10.004;2022-12-18T08:50:34;-6.80;99.90
45066;DHT22;30830;53.704;10.004;2022-12-18T08:53:00;-6.80;99.90
45066;DHT22;30830;53.704;10.004;2022-12-18T08:55:25;-6.70;99.90
45066;DHT22;30830;53.704;10.004;2022-12-18T08:57:51;-6.70;99.90
45066;DHT22;30830;53.704;10.004;2022-12-18T09:00:16;-6.70;99.90
45066;DHT22;30830;53.704;10.004;2022-12-18T09:02:42;-6.60;99.90
45066;DHT22;30830;53.704;10.004;2022-12-18T09:05:07;-6.60;99.90
45066;DHT22;30830;53.704;10.004;2022-12-18T09:07:33;-6.60;99.90
45066;DHT22;30830;53.704;10.004;2022-12-18T09:09:59;-6.50;99.90
45066;DHT22;30830;53.704;10.004;2022-12-18T09:12:24;-6.50;99.90
45066;DHT22;30830;53.704;10.004;2022-12-18T09:14:50;-6.40;99.90
45066;DHT22;30830;53.704;10.004;2022-12-18T09:17:15;-6.40;99.90
45066;DHT22;30830;53.704;10.004;2022-12-18T09:19:41;-6.30;99.90
45066;DHT22;30830;53.704;10.004;2022-12-18T09:22:06;-6.20;99.90
45066;DHT22;30830;53.704;10.004;2022-12-18T09:24:32;-6.20;99.90
45066;DHT22;30830;53.704;10.004;2022-12-18T09:26:57;-6.10;99.90
45066;DHT22;30830;53.704;10.004;2022-12-18T09:29:24;-6.00;99.90
45066;DHT22;30830;53.704;10.004;2022-12-18T09:31:49;-5.90;99.90
45066;DHT22;30830;53.704;10.004;2022-12-18T09:34:15;-5.80;99.90
45066;DHT22;30830;53.704;10.004;2022-12-18T09:36:41;-5.70;99.90
45066;DHT22;30830;53.704;10.004;2022-12-18T09:39:06;-5.70;99.90
45066;DHT22;30830;53.704;10.004;2022-12-18T09:41:43;-5.50;99.90
45066;DHT22;30830;53.704;10.004;2022-12-18T09:46:36;-5.30;99.90
45066;DHT22;30830;53.704;10.004;2022-12-18T09:49:05;-5.20;99.90
45066;DHT22;30830;53.704;10.004;2022-12-18T09:51:46;-5.10;99.90
45066;DHT22;30830;53.704;10.004;2022-12-18T09:54:14;-5.00;99.90
45066;DHT22;30830;53.704;10.004;2022-12-18T09:56:42;-4.90;99.90
45066;DHT22;30830;53.704;10.004;2022-12-18T09:59:14;-4.90;99.90
45066;DHT22;30830;53.704;10.004;2022-12-18T10:01:41;-4.80;99.90
45066;DHT22;30830;53.704;10.004;2022-12-18T10:04:07;-4.70;99.90
45066;DHT22;30830;53.704;10.004;2022-12-18T10:09:15;-4.60;99.90
45066;DHT22;30830;53.704;10.004;2022-12-18T10:11:50;-4.60;99.90
45066;DHT22;30830;53.704;10.004;2022-12-18T10:24:37;-4.30;99.90
45066;DHT22;30830;53.704;10.004;2022-12-18T10:27:09;-4.20;99.90
45066;DHT22;30830;53.704;10.004;2022-12-18T10:29:36;-4.20;99.90
45066;DHT22;30830;53.704;10.004;2022-12-18T10:32:02;-4.20;99.90
45066;DHT22;30830;53.704;10.004;2022-12-18T10:34:27;-4.10;99.90
45066;DHT22;30830;53.704;10.004;2022-12-18T10:36:53;-4.10;99.90
45066;DHT22;30830;53.704;10.004;2022-12-18T10:39:20;-4.10;99.90
45066;DHT22;30830;53.704;10.004;2022-12-18T10:41:50;-4.00;99.90
45066;DHT22;30830;53.704;10.004;2022-12-18T10:44:20;-4.00;99.90
45066;DHT22;30830;53.704;10.004;2022-12-18T10:46:46;-4.00;99.90
45066;DHT22;30830;53.704;10.004;2022-12-18T10:51:49;-3.80;99.90
45066;DHT22;30830;53.704;10.004;2022-12-18T10:56:40;-3.70;99.90
45066;DHT22;30830;53.704;10.004;2022-12-18T10:59:09;-3.70;99.90
45066;DHT22;30830;53.704;10.004;2022-12-18T11:01:52;-3.60;99.90
45066;DHT22;30830;53.704;10.004;2022-12-18T11:04:26;-3.50;99.90
45066;DHT22;30830;53.704;10.004;2022-12-18T11:06:59;-3.40;99.90
45066;DHT22;30830;53.704;10.004;2022-12-18T11:11:54;-3.30;99.90
45066;DHT22;30830;53.704;10.004;2022-12-18T11:14:21;-3.30;99.90
45066;DHT22;30830;53.704;10.004;2022-12-18T11:16:48;-3.20;99.90
45066;DHT22;30830;53.704;10.004;2022-12-18T11:19:21;-3.20;99.90
45066;DHT22;30830;53.704;10.004;2022-12-18T11:21:49;-3.10;99.90
45066;DHT22;30830;53.704;10.004;2022-12-18T11:24:36;-3.10;99.90
45066;DHT22;30830;53.704;10.004;2022-12-18T11:27:02;-3.10;99.90
45066;DHT22;30830;53.704;10.004;2022-12-18T11:29:31;-3.10;99.90
45066;DHT22;30830;53.704;10.004;2022-12-18T11:34:42;-3.10;99.90
45066;DHT22;30830;53.704;10.004;2022-12-18T11:37:09;-3.10;99.90
45066;DHT22;30830;53.704;10.004;2022-12-18T11:39:42;-3.10;99.90
45066;DHT22;30830;53.704;10.004;2022-12-18T11:45:41;-3.10;99.90
45066;DHT22;30830;53.704;10.004;2022-12-18T11:47:38;-3.10;99.90
45066;DHT22;30830;53.704;10.004;2022-12-18T11:50:10;-3.00;99.90
45066;DHT22;30830;53.704;10.004;2022-12-18T11:52:38;-3.00;99.90
45066;DHT22;30830;53.704;10.004;2022-12-18T11:55:07;-3.00;99.90
45066;DHT22;30830;53.704;10.004;2022-12-18T12:00:20;-3.00;99.90
45066;DHT22;30830;53.704;10.004;2022-12-18T12:05:50;-3.00;99.90
45066;DHT22;30830;53.704;10.004;2022-12-18T12:10:58;-3.00;99.90
45066;DHT22;30830;53.704;10.004;2022-12-18T12:18:34;-3.00;99.90
45066;DHT22;30830;53.704;10.004;2022-12-18T12:23:52;-2.90;99.90
45066;DHT22;30830;53.704;10.004;2022-12-18T12:26:23;-3.00;99.90
45066;DHT22;30830;53.704;10.004;2022-12-18T12:29:02;-3.00;99.90
45066;DHT22;30830;53.704;10.004;2022-12-18T12:31:37;-3.00;99.90
45066;DHT22;30830;53.704;10.004;2022-12-18T12:39:03;-2.90;99.90
45066;DHT22;30830;53.704;10.004;2022-12-18T12:41:31;-2.90;99.90
45066;DHT22;30830;53.704;10.004;2022-12-18T12:44:24;-2.90;99.90
45066;DHT22;30830;53.704;10.004;2022-12-18T12:46:50;-2.90;99.90
45066;DHT22;30830;53.704;10.004;2022-12-18T12:49:18;-2.90;99.90
45066;DHT22;30830;53.704;10.004;2022-12-18T12:52:10;-2.90;99.90
45066;DHT22;30830;53.704;10.004;2022-12-18T12:54:33;-2.90;99.90
45066;DHT22;30830;53.704;10.004;2022-12-18T12:57:13;-2.80;99.90
45066;DHT22;30830;53.704;10.004;2022-12-18T12:59:50;-2.80;99.90
45066;DHT22;30830;53.704;10.004;2022-12-18T13:05:45;-2.80;99.90
45066;DHT22;30830;53.704;10.004;2022-12-18T13:07:51;-2.70;99.90
45066;DHT22;30830;53.704;10.004;2022-12-18T13:15:47;-2.70;99.90
45066;DHT22;30830;53.704;10.004;2022-12-18T13:20:40;-2.60;99.90
45066;DHT22;30830;53.704;10.004;2022-12-18T13:31:06;-2.60;99.90
45066;DHT22;30830;53.704;10.004;2022-12-18T13:40:54;-2.50;99.90
45066;DHT22;30830;53.704;10.004;2022-12-18T13:45:49;-2.60;99.90
45066;DHT22;30830;53.704;10.004;2022-12-18T13:48:19;-2.70;99.90
45066;DHT22;30830;53.704;10.004;2022-12-18T13:50:49;-2.70;99.90
45066;DHT22;30830;53.704;10.004;2022-12-18T13:53:24;-2.70;99.90
45066;DHT22;30830;53.704;10.004;2022-12-18T13:55:51;-2.70;99.90
45066;DHT22;30830;53.704;10.004;2022-12-18T13:58:16;-2.80;99.90
45066;DHT22;30830;53.704;10.004;2022-12-18T14:00:42;-2.80;99.90
45066;DHT22;30830;53.704;10.004;2022-12-18T14:03:18;-2.80;99.90
45066;DHT22;30830;53.704;10.004;2022-12-18T14:05:44;-2.90;99.90
45066;DHT22;30830;53.704;10.004;2022-12-18T14:08:12;-2.90;99.90
45066;DHT22;30830;53.704;10.004;2022-12-18T14:10:41;-2.90;99.90
45066;DHT22;30830;53.704;10.004;2022-12-18T14:13:09;-3.00;99.90
45066;DHT22;30830;53.704;10.004;2022-12-18T14:15:36;-3.00;99.90
45066;DHT22;30830;53.704;10.004;2022-12-18T14:20:32;-3.00;99.90
45066;DHT22;30830;53.704;10.004;2022-12-18T14:22:59;-3.00;99.90
45066;DHT22;30830;53.704;10.004;2022-12-18T14:25:26;-3.00;99.90
45066;DHT22;30830;53.704;10.004;2022-12-18T14:30:35;-3.10;99.90
45066;DHT22;30830;53.704;10.004;2022-12-18T14:33:01;-3.10;99.90
45066;DHT22;30830;53.704;10.004;2022-12-18T14:35:27;-3.10;99.90
45066;DHT22;30830;53.704;10.004;2022-12-18T14:37:59;-3.10;99.90
45066;DHT22;30830;53.704;10.004;2022-12-18T14:40:32;-3.20;99.90
45066;DHT22;30830;53.704;10.004;2022-12-18T14:42:57;-3.10;99.90
45066;DHT22;30830;53.704;10.004;2022-12-18T14:45:36;-3.20;99.90
45066;DHT22;30830;53.704;10.004;2022-12-18T14:48:14;-3.20;99.90
45066;DHT22;30830;53.704;10.004;2022-12-18T14:50:40;-3.30;99.90
45066;DHT22;30830;53.704;10.004;2022-12-18T14:53:06;-3.30;99.90
45066;DHT22;30830;53.704;10.004;2022-12-18T14:55:31;-3.30;99.90
45066;DHT22;30830;53.704;10.004;2022-12-18T14:57:57;-3.30;99.90
45066;DHT22;30830;53.704;10.004;2022-12-18T15:00:24;-3.30;99.90
45066;DHT22;30830;53.704;10.004;2022-12-18T15:02:51;-3.40;99.90
45066;DHT22;30830;53.704;10.004;2022-12-18T15:05:35;-3.40;99.90
45066;DHT22;30830;53.704;10.004;2022-12-18T15:08:01;-3.40;99.90
45066;DHT22;30830;53.704;10.004;2022-12-18T15:10:28;-3.40;99.90
45066;DHT22;30830;53.704;10.004;2022-12-18T15:18:01;-3.50;99.90
45066;DHT22;30830;53.704;10.004;2022-12-18T15:20:26;-3.50;99.90
45066;DHT22;30830;53.704;10.004;2022-12-18T15:22:52;-3.60;99.90
45066;DHT22;30830;53.704;10.004;2022-12-18T15:25:36;-3.60;99.90
45066;DHT22;30830;53.704;10.004;2022-12-18T15:28:03;-3.60;99.90
45066;DHT22;30830;53.704;10.004;2022-12-18T15:30:29;-3.60;99.90
45066;DHT22;30830;53.704;10.004;2022-12-18T15:35:38;-3.70;99.90
45066;DHT22;30830;53.704;10.004;2022-12-18T15:38:04;-3.70;99.90
45066;DHT22;30830;53.704;10.004;2022-12-18T15:40:29;-3.70;99.90
45066;DHT22;30830;53.704;10.004;2022-12-18T15:42:55;-3.70;99.90
45066;DHT22;30830;53.704;10.004;2022-12-18T15:45:39;-3.70;99.90
45066;DHT22;30830;53.704;10.004;2022-12-18T15:48:15;-3.70;99.90
45066;DHT22;30830;53.704;10.004;2022-12-18T15:50:43;-3.80;99.90
45066;DHT22;30830;53.704;10.004;2022-12-18T15:53:08;-3.80;99.90
45066;DHT22;30830;53.704;10.004;2022-12-18T15:55:34;-3.80;99.90
45066;DHT22;30830;53.704;10.004;2022-12-18T15:58:17;-3.80;99.90
45066;DHT22;30830;53.704;10.004;2022-12-18T16:00:45;-3.70;99.90
45066;DHT22;30830;53.704;10.004;2022-12-18T16:03:10;-3.70;99.90
45066;DHT22;30830;53.704;10.004;2022-12-18T16:05:36;-3.70;99.90
45066;DHT22;30830;53.704;10.004;2022-12-18T16:08:01;-3.70;99.90
45066;DHT22;30830;53.704;10.004;2022-12-18T16:10:27;-3.70;99.90
45066;DHT22;30830;53.704;10.004;2022-12-18T16:12:53;-3.70;99.90
45066;DHT22;30830;53.704;10.004;2022-12-18T16:15:18;-3.70;99.90
45066;DHT22;30830;53.704;10.004;2022-12-18T16:17:44;-3.70;99.90
45066;DHT22;30830;53.704;10.004;2022-12-18T16:20:13;-3.80;99.90
45066;DHT22;30830;53.704;10.004;2022-12-18T16:22:41;-3.80;99.90
45066;DHT22;30830;53.704;10.004;2022-12-18T16:25:08;-3.80;99.90
45066;DHT22;30830;53.704;10.004;2022-12-18T16:27:36;-3.80;99.90
45066;DHT22;30830;53.704;10.004;2022-12-18T16:30:02;-3.80;99.90
45066;DHT22;30830;53.704;10.004;2022-12-18T16:32:28;-3.80;99.90
45066;DHT22;30830;53.704;10.004;2022-12-18T16:34:53;-3.80;99.90
45066;DHT22;30830;53.704;10.004;2022-12-18T16:37:24;-3.90;99.90
45066;DHT22;30830;53.704;10.004;2022-12-18T16:39:49;-3.90;99.90
45066;DHT22;30830;53.704;10.004;2022-12-18T16:42:16;-3.90;99.90
45066;DHT22;30830;53.704;10.004;2022-12-18T16:44:44;-3.90;99.90
45066;DHT22;30830;53.704;10.004;2022-12-18T16:47:10;-4.00;99.90
45066;DHT22;30830;53.704;10.004;2022-12-18T16:49:36;-4.00;99.90
45066;DHT22;30830;53.704;10.004;2022-12-18T16:52:02;-4.00;99.90
45066;DHT22;30830;53.704;10.004;2022-12-18T16:54:28;-4.00;99.90
45066;DHT22;30830;53.704;10.004;2022-12-18T16:56:59;-4.00;99.90
45066;DHT22;30830;53.704;10.004;2022-12-18T16:59:25;-4.00;99.90
45066;DHT22;30830;53.704;10.004;2022-12-18T17:01:51;-4.00;99.90
45066;DHT22;30830;53.704;10.004;2022-12-18T17:04:16;-4.00;99.90
45066;DHT22;30830;53.704;10.004;2022-12-18T17:06:42;-4.00;99.90
45066;DHT22;30830;53.704;10.004;2022-12-18T17:09:12;-4.00;99.90
45066;DHT22;30830;53.704;10.004;2022-12-18T17:11:41;-4.00;99.90